Rudd, Iowa
Current Conditions -  °F | °C
As of 1:15 AM on Sunday 26 Oct 2014 (Local Time) from KCCY Reporting Station
Clear Clear  
Wind Chill: 39°   Ceiling: Unl
Heat Index: 39°   Visibility: NA
Dew Point: 32°   Wind: 3mph
Humidity: 75%   Direction: 320°NW
Pressure: 30.06"   Gusts: NA
Location:  43.13°N, 92.91°W
Report Text: KCCY 260615Z AUTO 32003KT CLR 04/00 A3006 RMK AO2
Loading
Personal Weather Stations






























Interactive Weather Map
Tropical Storm Tracking
New forecast layout! Learn more

10-Day Weather Forecast

Advertisements
Track Severe Weather on mobile